createdAt,value
2022-10-17T00:04:47.877Z,102028.00
2022-10-17T00:10:58.858Z,102030.00
2022-10-17T00:17:00.857Z,102029.00
2022-10-17T00:23:02.889Z,102036.00
2022-10-17T00:29:05.076Z,102036.00
2022-10-17T00:35:08.088Z,102043.00
2022-10-17T00:41:13.163Z,102038.00
2022-10-17T00:47:19.758Z,102038.00
2022-10-17T00:53:22.040Z,102041.00
2022-10-17T00:59:25.204Z,102037.00
2022-10-17T01:05:27.272Z,102046.00
2022-10-17T01:11:30.643Z,102049.00
2022-10-17T01:17:41.432Z,102046.00
2022-10-17T01:24:17.383Z,102049.00
2022-10-17T01:30:50.017Z,102051.00
2022-10-17T01:36:59.661Z,102049.00
2022-10-17T01:43:25.098Z,102050.00
2022-10-17T01:49:31.520Z,102051.00
2022-10-17T01:55:37.971Z,102058.00
2022-10-17T02:01:42.512Z,102057.00
2022-10-17T02:07:44.643Z,102066.00
2022-10-17T02:14:07.773Z,102063.00
2022-10-17T02:20:30.848Z,102066.00
2022-10-17T02:26:45.952Z,102069.00
2022-10-17T02:33:14.021Z,102067.00
2022-10-17T02:39:17.259Z,102073.00
2022-10-17T02:45:20.152Z,102073.00
2022-10-17T02:51:43.194Z,102091.00
2022-10-17T02:57:51.413Z,102086.00
2022-10-17T03:04:06.012Z,102084.00
2022-10-17T03:10:08.694Z,102091.00
2022-10-17T03:16:11.868Z,102083.00
2022-10-17T03:22:14.220Z,102091.00
2022-10-17T03:28:19.479Z,102104.00
2022-10-17T03:34:22.006Z,102103.00
2022-10-17T03:40:24.333Z,102098.00
2022-10-17T03:46:26.499Z,102102.00
2022-10-17T03:52:30.272Z,102104.00
2022-10-17T03:58:33.427Z,102115.00
2022-10-17T04:04:35.838Z,102121.00
2022-10-17T04:10:38.557Z,102113.00
2022-10-17T04:16:40.642Z,102115.00
2022-10-17T04:22:48.514Z,102125.00
2022-10-17T04:28:51.379Z,102127.00
2022-10-17T04:34:53.332Z,102131.00
2022-10-17T04:41:04.736Z,102134.00
2022-10-17T04:47:08.470Z,102135.00
2022-10-17T04:53:10.924Z,102138.00
2022-10-17T04:59:13.100Z,102146.00
2022-10-17T05:05:16.621Z,102116.00
2022-10-17T05:11:26.728Z,102014.00
2022-10-17T05:17:28.865Z,102060.00
2022-10-17T05:23:31.065Z,102036.00
2022-10-17T05:29:35.075Z,102163.00
2022-10-17T05:35:45.009Z,102191.00
2022-10-17T05:41:47.241Z,102194.00
2022-10-17T05:47:49.452Z,102178.00
2022-10-17T05:53:52.210Z,102211.00
2022-10-17T05:59:59.446Z,102223.00
2022-10-17T06:06:14.973Z,102228.00
2022-10-17T06:12:19.466Z,102235.00
2022-10-17T06:18:22.431Z,102250.00
2022-10-17T06:24:24.605Z,102178.00
2022-10-17T06:30:28.226Z,102049.00
2022-10-17T06:36:30.520Z,102067.00
2022-10-17T06:42:33.858Z,102082.00
2022-10-17T06:48:59.198Z,102088.00
2022-10-17T06:55:31.703Z,102093.00
2022-10-17T07:01:55.698Z,102112.00
2022-10-17T07:07:59.699Z,102162.00
2022-10-17T07:14:02.394Z,102112.00
2022-10-17T07:20:04.608Z,102125.00
2022-10-17T07:26:11.734Z,102134.00
2022-10-17T07:32:14.971Z,102133.00
2022-10-17T07:38:17.568Z,102129.00
2022-10-17T07:44:19.899Z,102134.00
2022-10-17T07:50:25.472Z,102145.00
2022-10-17T07:56:27.500Z,102142.00
2022-10-17T08:02:29.575Z,102139.00
2022-10-17T08:08:32.161Z,102270.00
2022-10-17T08:14:34.319Z,102306.00
2022-10-17T08:20:37.191Z,102305.00
2022-10-17T08:26:42.446Z,102310.00
2022-10-17T08:32:46.146Z,102302.00
2022-10-17T08:38:52.593Z,102306.00
2022-10-17T08:45:16.600Z,102292.00
2022-10-17T08:51:27.965Z,102287.00
2022-10-17T08:57:30.583Z,102294.00
2022-10-17T09:03:50.591Z,102294.00
2022-10-17T09:10:13.145Z,102289.00
2022-10-17T09:16:31.164Z,102301.00
2022-10-17T09:23:02.436Z,102312.00
2022-10-17T09:29:16.294Z,102305.00
2022-10-17T09:35:19.429Z,102303.00
2022-10-17T09:41:44.830Z,102293.00
2022-10-17T09:48:01.874Z,102293.00
2022-10-17T09:54:09.289Z,102289.00
2022-10-17T10:00:22.050Z,102283.00
2022-10-17T10:06:23.995Z,102276.00
2022-10-17T10:13:02.377Z,102276.00
2022-10-17T10:19:21.947Z,102270.00
2022-10-17T10:25:24.033Z,102259.00
2022-10-17T10:31:35.508Z,102249.00
2022-10-17T10:37:42.193Z,102236.00
2022-10-17T10:43:48.055Z,102234.00
2022-10-17T10:50:08.383Z,102221.00
2022-10-17T10:56:21.411Z,102221.00
2022-10-17T11:02:43.418Z,102203.00
2022-10-17T11:08:51.489Z,102137.00
2022-10-17T11:15:21.187Z,102076.00
2022-10-17T11:21:58.462Z,102090.00
2022-10-17T11:28:04.880Z,102073.00
2022-10-17T11:34:29.668Z,102078.00
2022-10-17T11:40:35.599Z,102155.00
2022-10-17T11:46:39.611Z,102111.00
2022-10-17T11:53:02.949Z,102174.00
2022-10-17T11:59:42.520Z,102135.00
2022-10-17T12:05:57.674Z,102167.00
2022-10-17T12:12:02.508Z,102168.00
2022-10-17T12:18:05.252Z,102166.00
2022-10-17T12:24:20.589Z,102160.00
2022-10-17T12:30:25.705Z,102155.00
2022-10-17T12:36:27.788Z,102152.00
2022-10-17T12:42:31.299Z,102152.00
2022-10-17T12:48:42.396Z,102163.00
2022-10-17T12:55:12.997Z,102148.00
2022-10-17T13:01:31.682Z,102150.00
2022-10-17T13:07:35.165Z,102080.00
2022-10-17T13:13:44.967Z,102151.00
2022-10-17T13:19:47.550Z,102156.00
2022-10-17T13:26:02.010Z,102160.00
2022-10-17T13:32:06.044Z,102172.00
2022-10-17T13:38:08.232Z,102176.00
2022-10-17T13:44:21.267Z,102175.00
2022-10-17T13:50:43.764Z,102182.00
2022-10-17T13:56:46.540Z,102180.00
2022-10-17T14:02:49.047Z,102184.00
2022-10-17T14:09:00.982Z,102180.00
2022-10-17T14:15:11.902Z,102165.00
2022-10-17T14:21:44.398Z,102171.00
2022-10-17T14:28:02.932Z,102172.00
2022-10-17T14:34:05.753Z,102170.00
2022-10-17T14:40:08.459Z,102179.00
2022-10-17T14:46:17.039Z,102180.00
2022-10-17T14:52:19.226Z,102171.00
2022-10-17T14:58:29.526Z,102172.00
2022-10-17T15:04:31.565Z,102163.00
2022-10-17T15:10:36.019Z,102167.00
2022-10-17T15:16:39.644Z,102176.00
2022-10-17T15:22:41.666Z,102179.00
2022-10-17T15:28:44.503Z,102178.00
2022-10-17T15:34:49.875Z,102181.00
2022-10-17T15:40:52.222Z,102190.00
2022-10-17T15:46:55.907Z,102191.00
2022-10-17T15:52:58.087Z,102191.00
2022-10-17T15:59:12.953Z,102197.00
2022-10-17T16:05:19.119Z,102204.00
2022-10-17T16:11:32.231Z,102210.00
2022-10-17T16:17:34.159Z,102220.00
2022-10-17T16:23:36.080Z,102220.00
2022-10-17T16:29:38.011Z,102222.00
2022-10-17T16:35:40.196Z,102231.00
2022-10-17T16:41:42.265Z,102227.00
2022-10-17T16:47:44.259Z,102233.00
2022-10-17T16:53:50.219Z,102221.00
2022-10-17T16:59:52.917Z,102226.00
2022-10-17T17:05:55.022Z,102233.00
2022-10-17T17:11:57.211Z,102242.00
2022-10-17T17:18:04.114Z,102235.00
2022-10-17T17:24:07.713Z,102242.00
2022-10-17T17:30:10.261Z,102238.00
2022-10-17T17:36:17.391Z,102238.00
2022-10-17T17:42:20.169Z,102251.00
2022-10-17T17:48:22.417Z,102241.00
2022-10-17T17:54:24.414Z,102250.00
2022-10-17T18:00:26.675Z,102250.00
2022-10-17T18:06:29.342Z,102249.00
2022-10-17T18:12:32.476Z,102249.00
2022-10-17T18:18:34.663Z,102254.00
2022-10-17T18:24:36.871Z,102243.00
2022-10-17T18:30:39.237Z,102246.00
2022-10-17T18:36:41.370Z,102245.00
2022-10-17T18:42:43.513Z,102239.00
2022-10-17T18:48:46.880Z,102253.00
2022-10-17T18:54:49.431Z,102252.00
2022-10-17T19:00:51.783Z,102258.00
2022-10-17T19:06:53.973Z,102255.00
2022-10-17T19:12:55.972Z,102260.00
2022-10-17T19:19:04.586Z,102268.00
2022-10-17T19:25:06.972Z,102278.00
2022-10-17T19:31:09.977Z,102283.00
2022-10-17T19:37:14.532Z,102276.00
2022-10-17T19:43:17.034Z,102281.00
2022-10-17T19:49:19.334Z,102273.00
2022-10-17T19:55:22.138Z,102284.00
2022-10-17T20:01:25.566Z,102280.00
2022-10-17T20:07:27.777Z,102288.00
2022-10-17T20:13:30.107Z,102289.00
2022-10-17T20:19:32.676Z,102277.00
2022-10-17T20:25:38.368Z,102273.00
2022-10-17T20:31:42.508Z,102270.00
2022-10-17T20:37:44.578Z,102277.00
2022-10-17T20:43:46.806Z,102270.00
2022-10-17T20:49:49.035Z,102275.00
2022-10-17T20:56:05.034Z,102259.00
2022-10-17T21:02:07.862Z,102261.00
2022-10-17T21:08:09.864Z,102262.00
2022-10-17T21:14:12.626Z,102244.00
2022-10-17T21:20:14.797Z,102251.00
2022-10-17T21:26:18.362Z,102249.00
2022-10-17T21:32:33.349Z,102257.00
2022-10-17T21:38:43.492Z,102259.00
2022-10-17T21:44:45.460Z,102248.00
2022-10-17T21:50:47.558Z,102254.00
2022-10-17T21:56:50.482Z,102255.00
2022-10-17T22:02:52.685Z,102255.00
2022-10-17T22:08:55.400Z,102253.00
2022-10-17T22:14:57.541Z,102255.00
2022-10-17T22:21:04.873Z,102243.00
2022-10-17T22:27:06.870Z,102248.00
2022-10-17T22:33:09.082Z,102236.00
2022-10-17T22:39:12.080Z,102237.00
2022-10-17T22:45:14.265Z,102229.00
2022-10-17T22:51:17.823Z,102224.00
2022-10-17T22:57:20.125Z,102229.00
2022-10-17T23:03:23.350Z,102221.00
2022-10-17T23:15:51.845Z,102219.00
2022-10-17T23:21:54.017Z,102218.00
2022-10-17T23:27:56.066Z,102218.00
2022-10-17T23:33:59.009Z,102210.00
2022-10-17T23:40:01.639Z,102221.00
2022-10-17T23:46:05.429Z,102208.00
2022-10-17T23:52:07.829Z,102205.00
2022-10-17T23:58:10.087Z,102208.00
